Time;durP1;ratioP1;P1;durP2;ratioP2;P2;SDS_P1;SDS_P2;PMS_P1;PMS_P2;Temp;Humidity;BMP_temperature;BMP_pressure;BME280_temperature;BME280_humidity;BME280_pressure;Samples;Min_cycle;Max_cycle;Signal;HPM_P1;HPM_P2
2023/07/07 00:01:57;;;;;;;13.23;9.57;;;;;;;13.10;100.00;101871.94;4957042;29;20638;-78
2023/07/07 00:04:27;;;;;;;14.02;10.18;;;;;;;13.18;100.00;101893.09;4956943;29;20038;-78
2023/07/07 00:06:53;;;;;;;12.82;10.30;;;;;;;12.84;100.00;101847.47;4956806;29;20102;-78
2023/07/07 00:09:18;;;;;;;14.90;10.13;;;;;;;13.14;100.00;101889.81;4956952;29;20581;-78
2023/07/07 00:11:43;;;;;;;12.35;9.57;;;;;;;13.11;100.00;101899.53;4956498;29;20038;-78
2023/07/07 00:14:09;;;;;;;14.20;10.90;;;;;;;12.86;100.00;101856.84;4956778;29;20102;-77
2023/07/07 00:16:37;;;;;;;13.40;10.20;;;;;;;13.03;100.00;101894.78;4956868;29;20039;-78
2023/07/07 00:19:03;;;;;;;13.43;10.98;;;;;;;13.00;100.00;101901.91;4939432;29;20027;-78
2023/07/07 00:21:29;;;;;;;13.70;10.68;;;;;;;12.97;100.00;101905.50;4956299;29;20485;-78
2023/07/07 00:23:56;;;;;;;13.63;10.80;;;;;;;12.73;100.00;101874.00;4956281;29;20032;-77
2023/07/07 00:26:23;;;;;;;12.48;11.18;;;;;;;12.76;100.00;101879.00;4956263;29;20027;-78
2023/07/07 00:28:49;;;;;;;14.18;11.18;;;;;;;12.91;100.00;101905.84;4956087;29;20035;-78
2023/07/07 00:31:16;;;;;;;13.20;11.70;;;;;;;12.54;100.00;101856.03;4956511;29;20031;-78
2023/07/07 00:33:42;;;;;;;12.65;11.23;;;;;;;12.72;100.00;101887.06;4956155;29;20544;-78
2023/07/07 00:36:08;;;;;;;14.27;11.50;;;;;;;12.76;100.00;101886.78;4956418;29;20110;-78
2023/07/07 00:38:33;;;;;;;13.10;11.57;;;;;;;12.81;100.00;101905.53;4956590;29;20027;-78
2023/07/07 00:41:04;;;;;;;15.10;12.98;;;;;;;12.61;100.00;101872.09;4956211;29;20038;-78
2023/07/07 00:43:30;;;;;;;15.53;14.00;;;;;;;12.50;100.00;101871.84;4956041;29;20042;-78
2023/07/07 00:45:56;;;;;;;16.10;14.45;;;;;;;12.73;100.00;101912.03;4956199;28;20059;-77
2023/07/07 00:48:22;;;;;;;17.20;14.60;;;;;;;12.72;100.00;101908.63;4955963;29;20051;-78
2023/07/07 00:50:53;;;;;;;16.58;14.75;;;;;;;12.70;100.00;101912.22;4956162;29;20054;-78
2023/07/07 00:53:20;;;;;;;16.65;13.52;;;;;;;12.71;100.00;101906.94;4955920;29;20532;-77
2023/07/07 00:55:54;;;;;;;15.40;13.15;;;;;;;12.11;100.00;101815.25;4955872;29;20038;-78
2023/07/07 00:58:22;;;;;;;17.65;13.65;;;;;;;12.66;100.00;101908.09;4955559;29;20031;-78
2023/07/07 01:01:13;;;;;;;14.38;12.88;;;;;;;11.86;100.00;101774.31;4955828;29;20032;-78
2023/07/07 01:03:43;;;;;;;14.50;12.30;;;;;;;12.62;100.00;101910.03;4859366;29;20041;-78
2023/07/07 01:06:16;;;;;;;15.25;12.45;;;;;;;12.41;100.00;101878.34;4859482;29;20391;-79
2023/07/07 01:08:46;;;;;;;16.13;12.93;;;;;;;12.40;100.00;101894.81;4858957;29;20050;-79
2023/07/07 01:11:11;;;;;;;15.60;13.25;;;;;;;12.52;100.00;101914.03;4858391;29;20065;-79
2023/07/07 01:13:37;;;;;;;14.48;12.40;;;;;;;12.39;100.00;101893.16;4859369;29;20033;-76
2023/07/07 01:16:12;;;;;;;14.77;12.80;;;;;;;12.26;100.00;101879.16;4858838;29;20052;-77
2023/07/07 01:18:53;;;;;;;15.98;13.43;;;;;;;12.43;100.00;101912.78;4859160;29;20046;-79
2023/07/07 01:24:41;;;;;;;13.85;11.77;;;;;;;12.39;100.00;101918.19;4822039;29;20103;-79
2023/07/07 01:27:53;;;;;;;14.18;12.65;;;;;;;11.74;100.00;101818.00;4822706;29;20160;-77
2023/07/07 01:30:34;;;;;;;15.32;12.45;;;;;;;12.32;100.00;101912.50;4822407;29;20183;-78
2023/07/07 01:33:38;;;;;;;13.25;11.82;;;;;;;11.87;100.00;101848.44;4822065;29;20045;-78
2023/07/07 01:36:15;;;;;;;14.25;11.70;;;;;;;10.92;100.00;101700.72;4821386;29;20035;-78
2023/07/07 01:38:53;;;;;;;15.52;12.75;;;;;;;10.94;100.00;101708.38;4821998;29;20401;-76
2023/07/07 01:41:33;;;;;;;15.10;13.25;;;;;;;12.05;100.00;101891.50;4865470;29;20037;-78
2023/07/07 01:44:22;;;;;;;14.90;13.23;;;;;;;12.14;100.00;101909.13;4861925;29;20081;-78
2023/07/07 01:47:11;;;;;;;15.80;14.02;;;;;;;12.10;100.00;101912.81;4877053;29;20041;-78
2023/07/07 01:49:56;;;;;;;16.35;13.35;;;;;;;12.07;100.00;101910.38;4877180;29;20487;-78
2023/07/07 01:52:31;;;;;;;16.70;14.23;;;;;;;12.03;100.00;101914.03;4876924;29;20025;-78
2023/07/07 01:55:04;;;;;;;16.95;14.50;;;;;;;11.78;100.00;101878.19;4877186;29;20519;-78
2023/07/07 01:57:32;;;;;;;18.15;15.57;;;;;;;11.88;100.00;101897.53;4877028;29;20053;-78
2023/07/07 01:59:59;;;;;;;18.02;16.15;;;;;;;11.91;100.00;101907.75;4876174;29;20061;-78
2023/07/07 02:02:25;;;;;;;18.80;16.92;;;;;;;11.86;100.00;101909.72;4945415;29;20042;-78
2023/07/07 02:04:50;;;;;;;19.33;16.65;;;;;;;11.60;100.00;101871.34;4954524;29;20114;-78
2023/07/07 02:07:16;;;;;;;18.25;16.35;;;;;;;11.74;100.00;101894.78;4954298;29;20106;-77
2023/07/07 02:09:41;;;;;;;19.85;17.63;;;;;;;11.78;100.00;101909.22;4954843;29;20110;-78
2023/07/07 02:12:07;;;;;;;20.52;18.52;;;;;;;11.76;100.00;101913.66;4954845;29;20031;-79
2023/07/07 02:14:32;;;;;;;21.33;19.00;;;;;;;11.75;100.00;101902.47;4954741;29;20050;-78
2023/07/07 02:16:59;;;;;;;20.85;18.80;;;;;;;11.72;100.00;101899.22;4954544;29;20031;-80
2023/07/07 02:19:24;;;;;;;18.73;16.73;;;;;;;11.22;100.00;101826.75;4954530;29;20023;-77
2023/07/07 02:21:51;;;;;;;18.30;15.88;;;;;;;11.67;100.00;101898.59;4954307;29;20082;-78
2023/07/07 02:24:16;;;;;;;20.30;17.30;;;;;;;11.66;100.00;101902.94;4954194;29;20122;-78
2023/07/07 02:26:41;;;;;;;21.65;17.08;;;;;;;11.61;100.00;101901.50;4954652;29;20059;-79
2023/07/07 02:29:09;;;;;;;17.65;15.88;;;;;;;11.60;100.00;101911.03;4954719;29;20031;-77
2023/07/07 02:31:34;;;;;;;18.67;16.10;;;;;;;11.41;100.00;101874.06;4954600;29;20023;-79
2023/07/07 02:34:00;;;;;;;16.70;14.93;;;;;;;11.41;100.00;101876.63;4954475;29;20167;-78
2023/07/07 02:36:25;;;;;;;17.83;15.13;;;;;;;11.52;100.00;101901.97;4954464;29;20110;-79
2023/07/07 02:38:53;;;;;;;16.77;14.05;;;;;;;11.10;100.00;101847.09;4954030;29;20047;-80
2023/07/07 02:41:19;;;;;;;18.73;14.25;;;;;;;10.99;100.00;101828.69;4937159;29;20031;-79
2023/07/07 02:46:18;;;;;;;19.02;15.20;;;;;;;10.90;100.00;101829.13;4959983;23;20052;-80
2023/07/07 02:48:44;;;;;;;19.40;14.77;;;;;;;11.36;100.00;101910.47;4921167;29;20441;-78
2023/07/07 02:51:09;;;;;;;16.40;14.65;;;;;;;11.17;100.00;101873.50;4954396;29;20027;-78
2023/07/07 02:53:36;;;;;;;16.85;14.98;;;;;;;11.36;100.00;101912.22;4936891;29;20043;-79
2023/07/07 02:56:03;;;;;;;16.52;14.82;;;;;;;11.32;100.00;101914.13;4953982;29;20050;-78
2023/07/07 02:58:31;;;;;;;16.00;14.25;;;;;;;10.88;100.00;101844.72;4954433;29;20030;-78
2023/07/07 03:01:15;;;;;;;16.45;14.27;;;;;;;11.30;100.00;101925.44;4954499;29;20199;-81
2023/07/07 03:03:47;;;;;;;14.80;13.13;;;;;;;11.11;100.00;101902.22;4953721;29;20035;-80
2023/07/07 03:06:20;;;;;;;15.15;12.15;;;;;;;11.20;100.00;101922.44;4953766;29;20027;-78
2023/07/07 03:08:46;;;;;;;15.05;13.13;;;;;;;11.12;100.00;101909.09;4954155;29;20027;-80
2023/07/07 03:11:14;;;;;;;16.85;13.15;;;;;;;11.16;100.00;101916.59;4957043;28;20034;-82
2023/07/07 03:13:40;;;;;;;15.77;13.07;;;;;;;11.18;100.00;101921.69;4957779;29;20031;-78
2023/07/07 03:16:23;;;;;;;14.70;12.82;;;;;;;11.13;100.00;101928.84;4957909;29;20034;-77
2023/07/07 03:18:51;;;;;;;13.65;12.23;;;;;;;11.05;100.00;101920.63;4953992;29;20557;-79
2023/07/07 03:21:17;;;;;;;13.70;12.07;;;;;;;11.09;100.00;101927.31;4957714;29;20027;-79
2023/07/07 03:23:43;;;;;;;16.05;12.82;;;;;;;11.04;100.00;101931.88;4957567;29;20114;-82
2023/07/07 03:26:11;;;;;;;17.05;13.55;;;;;;;10.70;100.00;101875.75;4957765;29;20118;-81
2023/07/07 03:28:37;;;;;;;16.48;12.77;;;;;;;11.03;100.00;101923.28;4957623;29;20046;-79
2023/07/07 03:31:12;;;;;;;15.60;12.75;;;;;;;11.03;100.00;101923.28;4957359;29;20485;-79
2023/07/07 03:33:40;;;;;;;15.23;13.07;;;;;;;10.91;100.00;101903.16;4957610;29;20023;-78
2023/07/07 03:36:06;;;;;;;14.85;12.60;;;;;;;11.01;100.00;101932.00;4957631;29;20118;-79
2023/07/07 03:38:31;;;;;;;16.33;13.05;;;;;;;10.96;100.00;101926.22;4957429;29;20118;-78
2023/07/07 03:40:56;;;;;;;14.40;12.90;;;;;;;10.94;100.00;101917.72;4957066;29;20485;-79
2023/07/07 03:43:22;;;;;;;13.93;12.48;;;;;;;11.01;100.00;101932.00;4957180;29;20023;-78
2023/07/07 03:45:47;;;;;;;15.50;12.30;;;;;;;10.91;100.00;101918.66;4956806;29;20047;-78
2023/07/07 03:48:13;;;;;;;13.25;11.60;;;;;;;10.77;100.00;101898.66;4957031;29;20031;-78
2023/07/07 03:50:38;;;;;;;15.32;12.07;;;;;;;10.94;100.00;101928.03;4957072;29;20024;-79
2023/07/07 03:53:03;;;;;;;14.00;11.27;;;;;;;10.98;100.00;101934.72;4956850;29;20035;-79
2023/07/07 03:55:29;;;;;;;14.32;11.55;;;;;;;10.95;100.00;101933.13;4956681;29;20031;-78
2023/07/07 03:57:55;;;;;;;14.95;11.93;;;;;;;10.95;100.00;101930.56;4956917;29;20034;-80
2023/07/07 04:00:21;;;;;;;13.52;11.80;;;;;;;10.99;100.00;101928.66;4956786;29;20060;-78
2023/07/07 04:02:46;;;;;;;13.23;11.77;;;;;;;10.87;100.00;101906.81;4956677;29;20118;-78
2023/07/07 04:05:12;;;;;;;14.45;11.75;;;;;;;10.87;100.00;101902.47;4956711;29;20118;-79
2023/07/07 04:07:37;;;;;;;15.10;12.82;;;;;;;10.77;100.00;101875.41;4957049;29;20042;-78
2023/07/07 04:10:03;;;;;;;14.50;12.27;;;;;;;10.96;100.00;101902.97;4956782;29;20023;-78
2023/07/07 04:12:31;;;;;;;13.93;12.18;;;;;;;11.05;100.00;101915.44;4956824;29;20024;-79
2023/07/07 04:14:58;;;;;;;15.32;11.75;;;;;;;11.12;100.00;101938.34;4956693;29;20039;-79
2023/07/07 04:17:23;;;;;;;14.95;12.38;;;;;;;11.15;100.00;101933.03;4956523;29;20041;-79
2023/07/07 04:19:48;;;;;;;15.88;12.43;;;;;;;11.13;100.00;101916.75;4956462;29;20031;-79
2023/07/07 04:22:14;;;;;;;16.05;13.48;;;;;;;11.25;100.00;101930.00;4955792;28;20031;-82
2023/07/07 04:24:40;;;;;;;16.15;13.18;;;;;;;11.08;100.00;101884.28;4956338;29;20118;-79
2023/07/07 04:27:05;;;;;;;15.55;13.57;;;;;;;11.18;100.00;101895.84;4956458;29;20026;-80
2023/07/07 04:29:31;;;;;;;16.33;14.07;;;;;;;11.57;100.00;101939.59;4938754;29;20051;-80
2023/07/07 04:31:56;;;;;;;16.38;13.10;;;;;;;11.71;100.00;101947.53;4939038;29;20028;-79
2023/07/07 04:34:22;;;;;;;17.73;14.13;;;;;;;11.87;100.00;101951.97;4939022;29;20055;-80
2023/07/07 04:36:48;;;;;;;17.05;15.27;;;;;;;11.76;100.00;101895.53;4956029;29;20378;-78
2023/07/07 04:39:14;;;;;;;16.95;15.25;;;;;;;12.26;100.00;101949.09;4956037;29;20026;-78
2023/07/07 04:41:40;;;;;;;18.05;16.25;;;;;;;12.39;100.00;101946.69;4956060;29;20023;-78
2023/07/07 04:44:05;;;;;;;17.58;15.73;;;;;;;12.52;100.00;101940.78;4955711;29;20034;-78
2023/07/07 04:46:36;;;;;;;19.67;15.82;;;;;;;12.64;100.00;101939.28;4956126;29;20113;-79
2023/07/07 04:49:06;;;;;;;17.52;14.68;;;;;;;12.68;100.00;101934.75;4955782;29;20031;-78
2023/07/07 04:51:33;;;;;;;17.58;13.82;;;;;;;12.72;100.00;101931.94;4956192;29;20031;-78
2023/07/07 04:53:59;;;;;;;16.20;13.98;;;;;;;12.49;100.00;101898.69;4956103;29;20085;-77
2023/07/07 04:56:24;;;;;;;17.92;13.95;;;;;;;12.71;100.00;101919.91;4955961;29;20118;-79
2023/07/07 04:58:52;;;;;;;17.90;15.43;;;;;;;12.70;100.00;101905.28;4955809;29;20139;-78
2023/07/07 05:01:26;;;;;;;20.50;18.33;;;;;;;12.53;100.00;101869.91;4955628;29;20034;-77
2023/07/07 05:03:54;;;;;;;20.23;17.83;;;;;;;12.92;100.00;101926.50;4938291;29;20125;-78
2023/07/07 05:06:21;;;;;;;21.38;19.33;;;;;;;13.03;100.00;101940.63;4938488;29;20120;-78
2023/07/07 05:08:53;;;;;;;19.63;17.67;;;;;;;12.80;100.00;101856.38;4938623;29;20058;-78
2023/07/07 05:11:21;;;;;;;19.85;13.82;;;;;;;13.72;100.00;101933.22;4938343;29;20019;-78
2023/07/07 05:13:48;;;;;;;14.63;11.35;;;;;;;14.01;99.27;101915.06;4955610;29;20433;-78
2023/07/07 05:16:19;;;;;;;13.25;11.10;;;;;;;14.38;96.02;101902.44;4938300;29;20503;-77
2023/07/07 05:18:45;;;;;;;12.27;10.27;;;;;;;14.97;91.58;101935.13;4938291;29;20027;-78
2023/07/07 05:21:12;;;;;;;12.50;9.95;;;;;;;15.32;91.42;101935.44;4955871;29;20155;-78
2023/07/07 05:23:37;;;;;;;15.52;10.20;;;;;;;15.57;91.21;101933.84;4955613;29;20031;-78
2023/07/07 05:26:04;;;;;;;11.73;8.43;;;;;;;15.86;85.20;101926.72;4955198;29;20094;-78
2023/07/07 05:28:30;;;;;;;11.48;8.90;;;;;;;16.26;84.54;101941.28;4955500;29;20134;-76
2023/07/07 05:30:56;;;;;;;12.77;8.88;;;;;;;16.64;81.76;101941.22;4955418;29;20031;-78
2023/07/07 05:33:22;;;;;;;14.93;9.23;;;;;;;17.18;79.83;101932.16;4955714;28;20425;-80
2023/07/07 05:35:52;;;;;;;10.18;7.95;;;;;;;18.06;77.07;101943.78;4955307;29;20027;-78
2023/07/07 05:38:20;;;;;;;11.88;8.50;;;;;;;18.87;73.66;101911.25;4955493;29;20027;-77
2023/07/07 05:40:46;;;;;;;10.98;8.38;;;;;;;20.37;67.12;101945.88;4938038;29;20027;-78
2023/07/07 05:43:15;;;;;;;7.47;5.35;;;;;;;21.88;63.90;101934.06;4955179;29;20034;-78
2023/07/07 05:45:41;;;;;;;11.10;8.60;;;;;;;23.03;57.28;101935.28;4938094;29;20506;-78
2023/07/07 05:48:08;;;;;;;12.25;9.10;;;;;;;24.03;55.19;101944.59;4955285;29;20023;-78
2023/07/07 05:50:33;;;;;;;10.13;7.82;;;;;;;25.14;49.90;101954.00;4955166;29;20023;-79
2023/07/07 05:53:01;;;;;;;12.20;6.78;;;;;;;25.72;46.06;101896.63;4954847;29;20046;-78
2023/07/07 05:55:30;;;;;;;10.70;5.85;;;;;;;26.65;44.98;101946.22;4955108;29;20122;-78
2023/07/07 05:57:56;;;;;;;9.40;5.72;;;;;;;27.37;42.91;101915.69;4954820;29;20381;-78
2023/07/07 06:00:23;;;;;;;10.95;6.55;;;;;;;27.94;41.69;101941.63;4954709;29;20122;-78
2023/07/07 06:02:54;;;;;;;9.57;5.45;;;;;;;28.45;39.57;101949.66;4954953;29;20023;-79
2023/07/07 06:05:19;;;;;;;8.40;5.38;;;;;;;29.09;37.96;101946.22;5521076;23;20007;-77
2023/07/07 06:07:46;;;;;;;8.93;6.00;;;;;;;29.11;37.38;101946.88;4954509;29;20066;-78
2023/07/07 06:10:12;;;;;;;9.35;5.70;;;;;;;29.29;36.51;101933.88;4954879;29;20102;-79
2023/07/07 06:12:38;;;;;;;10.10;5.93;;;;;;;29.31;36.50;101904.44;4954385;29;20151;-78
2023/07/07 06:15:04;;;;;;;9.13;6.18;;;;;;;30.24;35.70;101927.09;4954366;29;20035;-78
2023/07/07 06:17:30;;;;;;;10.52;6.45;;;;;;;30.52;35.44;101934.97;4954654;29;20027;-77
2023/07/07 06:19:55;;;;;;;9.32;6.57;;;;;;;30.74;33.12;101930.31;4954495;29;20031;-78
2023/07/07 06:22:21;;;;;;;9.43;6.55;;;;;;;30.94;33.77;101914.34;4954560;29;20039;-77
2023/07/07 06:24:46;;;;;;;8.48;5.88;;;;;;;31.61;32.47;101940.78;4954525;29;20027;-76
2023/07/07 06:27:11;;;;;;;10.88;6.63;;;;;;;32.08;31.28;101940.69;4954233;29;20418;-78
2023/07/07 06:29:37;;;;;;;8.13;6.28;;;;;;;32.18;30.54;101917.81;4936746;29;20397;-78
2023/07/07 06:32:02;;;;;;;8.30;6.63;;;;;;;32.10;30.55;101938.59;4954287;29;20035;-78
2023/07/07 06:34:28;;;;;;;11.05;6.10;;;;;;;32.02;30.73;101937.00;4954408;29;20036;-78
2023/07/07 06:36:53;;;;;;;8.90;5.60;;;;;;;31.71;31.29;101910.97;4954342;29;20384;-80
2023/07/07 06:39:18;;;;;;;8.52;6.53;;;;;;;32.28;30.81;101911.19;4954477;29;20059;-78
2023/07/07 06:41:44;;;;;;;9.48;6.75;;;;;;;32.80;30.12;101939.47;4954202;29;20063;-78
2023/07/07 06:44:09;;;;;;;12.40;6.65;;;;;;;32.97;30.87;101934.44;4954343;28;20031;-77
2023/07/07 06:46:35;;;;;;;8.48;6.40;;;;;;;33.88;28.13;101931.09;4958087;29;20071;-80
2023/07/07 06:49:02;;;;;;;10.20;6.85;;;;;;;34.16;27.80;101941.25;4958200;29;20028;-79
2023/07/07 06:51:27;;;;;;;8.00;5.45;;;;;;;33.91;28.19;101952.06;4939033;29;20501;-77
2023/07/07 06:53:53;;;;;;;8.48;5.90;;;;;;;34.20;27.27;101945.09;4939863;29;20103;-79
2023/07/07 06:56:18;;;;;;;9.27;5.38;;;;;;;33.87;27.54;101908.81;4939321;29;20467;-80
2023/07/07 06:58:44;;;;;;;8.48;5.53;;;;;;;33.85;28.23;101951.09;4938974;29;20060;-80
2023/07/07 07:01:11;;;;;;;8.15;4.78;;;;;;;33.96;26.23;101949.53;4921878;29;20099;-78
2023/07/07 07:03:37;;;;;;;6.80;3.72;;;;;;;33.97;26.68;101950.34;4938551;29;20039;-81
2023/07/07 07:06:03;;;;;;;8.45;3.90;;;;;;;34.19;26.62;101952.31;4938536;29;20054;-80
2023/07/07 07:08:28;;;;;;;8.70;4.22;;;;;;;34.27;26.17;101961.94;4938835;29;20035;-80
2023/07/07 07:10:53;;;;;;;7.18;3.90;;;;;;;34.40;25.29;101934.13;4938714;29;20055;-83
2023/07/07 07:13:19;;;;;;;7.13;3.88;;;;;;;34.16;26.06;101911.75;4938460;29;20028;-82
2023/07/07 07:15:45;;;;;;;7.60;4.10;;;;;;;34.36;26.34;101955.19;4921593;29;20478;-82
2023/07/07 07:18:12;;;;;;;9.52;3.90;;;;;;;34.59;25.29;101954.47;4938608;29;20020;-82
2023/07/07 07:20:38;;;;;;;7.60;3.55;;;;;;;34.86;24.42;101944.16;4938615;29;20027;-79
2023/07/07 07:23:04;;;;;;;6.43;3.97;;;;;;;34.89;24.62;101953.66;4938432;29;20347;-78
2023/07/07 07:25:29;;;;;;;7.88;4.38;;;;;;;34.93;24.95;101952.97;4938610;29;20031;-78
2023/07/07 07:27:54;;;;;;;6.45;4.28;;;;;;;34.97;25.21;101956.81;4938255;29;20043;-76
2023/07/07 07:30:20;;;;;;;7.03;4.28;;;;;;;34.45;24.23;101916.31;4938232;29;20537;-76
2023/07/07 07:32:45;;;;;;;8.13;4.32;;;;;;;34.36;26.32;101957.06;4938115;29;20393;-77
2023/07/07 07:35:11;;;;;;;8.52;4.63;;;;;;;34.83;25.94;101954.56;4938630;29;20400;-79
2023/07/07 07:37:37;;;;;;;7.72;4.30;;;;;;;35.25;26.28;101958.00;4938467;29;20067;-79
2023/07/07 07:40:02;;;;;;;6.82;3.85;;;;;;;35.46;25.15;101965.50;4938174;29;20433;-77
2023/07/07 07:42:29;;;;;;;7.53;4.07;;;;;;;34.87;25.03;101964.59;4954958;29;20027;-76
2023/07/07 07:44:54;;;;;;;8.18;3.78;;;;;;;33.37;26.34;101965.19;4956912;29;20042;-77
2023/07/07 07:47:20;;;;;;;8.27;4.03;;;;;;;31.15;29.43;101946.16;4957395;29;20027;-77
2023/07/07 07:49:46;;;;;;;6.25;3.55;;;;;;;29.40;31.48;101943.22;4957133;29;20039;-76
2023/07/07 07:52:11;;;;;;;9.75;4.88;;;;;;;28.27;35.09;101962.47;4957419;29;20023;-77
2023/07/07 07:54:38;;;;;;;7.88;4.30;;;;;;;27.45;36.09;101959.88;4957034;29;20062;-76
2023/07/07 07:57:04;;;;;;;7.38;4.32;;;;;;;26.66;38.89;101964.59;4955692;28;20031;-79
2023/07/07 07:59:31;;;;;;;8.43;4.40;;;;;;;26.16;39.76;101962.31;4956702;29;20031;-76
2023/07/07 08:01:56;;;;;;;9.27;4.78;;;;;;;25.60;40.58;101961.44;4956892;29;20035;-75
2023/07/07 08:04:22;;;;;;;8.60;4.35;;;;;;;25.45;42.14;101966.56;4956591;29;20462;-77
2023/07/07 08:06:51;;;;;;;8.35;5.00;;;;;;;25.24;42.26;101963.59;4956759;29;20054;-78
2023/07/07 08:09:16;;;;;;;8.50;4.13;;;;;;;25.03;43.69;101979.94;4937326;29;20032;-77
2023/07/07 08:11:42;;;;;;;9.75;4.88;;;;;;;24.98;42.64;101975.13;4920318;29;20042;-75
2023/07/07 08:14:13;;;;;;;9.30;5.03;;;;;;;24.82;43.86;101961.88;4937068;29;20032;-75
2023/07/07 08:16:38;;;;;;;8.57;3.97;;;;;;;24.79;45.08;101972.78;4937421;29;20537;-75
2023/07/07 08:19:04;;;;;;;8.10;4.05;;;;;;;24.78;44.83;101974.59;4937218;29;20164;-74
2023/07/07 08:21:29;;;;;;;8.82;3.58;;;;;;;24.65;44.33;101950.44;4937594;29;20106;-76
2023/07/07 08:23:55;;;;;;;9.90;3.55;;;;;;;24.59;44.44;101953.75;4937055;29;20054;-75
2023/07/07 08:26:20;;;;;;;7.72;3.47;;;;;;;24.64;44.04;101966.47;4937106;29;20043;-78
2023/07/07 08:28:46;;;;;;;6.95;4.30;;;;;;;24.59;43.79;101972.22;4920112;29;20028;-77
2023/07/07 08:31:11;;;;;;;7.30;3.60;;;;;;;24.55;44.16;101965.59;4959676;23;20066;-77
2023/07/07 08:33:36;;;;;;;8.60;4.13;;;;;;;24.53;45.70;101972.88;4937136;29;20099;-76
2023/07/07 08:36:02;;;;;;;8.77;3.95;;;;;;;24.67;45.89;101969.59;4937346;29;20529;-75
2023/07/07 08:38:27;;;;;;;7.97;3.90;;;;;;;24.75;43.53;101972.25;4920238;29;20039;-75
2023/07/07 08:40:55;;;;;;;9.48;3.58;;;;;;;24.52;45.27;101950.09;4937222;29;20398;-75
2023/07/07 08:43:22;;;;;;;7.72;3.35;;;;;;;24.62;44.46;101971.91;4937031;29;20110;-73
2023/07/07 08:46:24;;;;;;;5.32;2.80;;;;;;;24.73;43.54;101981.34;4936045;29;20027;-74
2023/07/07 08:48:56;;;;;;;5.18;2.65;;;;;;;24.74;43.38;101975.88;4920702;29;20027;-76
2023/07/07 08:51:32;;;;;;;5.80;2.50;;;;;;;24.70;43.49;101956.09;4936942;29;20111;-78
2023/07/07 08:54:19;;;;;;;4.60;2.83;;;;;;;24.84;42.14;101973.09;4936866;29;20031;-78
2023/07/07 08:56:58;;;;;;;5.63;2.72;;;;;;;24.92;41.29;101965.19;4936838;29;20034;-79
2023/07/07 08:59:48;;;;;;;6.43;2.65;;;;;;;24.89;42.89;101974.28;4936600;29;20095;-78
2023/07/07 09:02:25;;;;;;;6.30;2.72;;;;;;;24.94;44.43;101979.06;4937167;29;20377;-78
2023/07/07 09:05:28;;;;;;;5.80;3.25;;;;;;;24.84;43.33;101979.22;4936631;29;20031;-76
2023/07/07 09:08:22;;;;;;;6.07;2.45;;;;;;;24.91;42.25;101973.28;4936246;29;20039;-77
2023/07/07 09:11:28;;;;;;;7.57;2.40;;;;;;;24.96;41.69;101971.78;4936418;29;20063;-77
2023/07/07 09:13:56;;;;;;;4.47;2.08;;;;;;;24.99;41.10;101968.84;4859332;29;20681;-78
2023/07/07 09:16:26;;;;;;;4.82;2.15;;;;;;;25.06;40.82;101975.16;4859214;29;20041;-77
2023/07/07 09:19:13;;;;;;;5.18;2.30;;;;;;;25.10;40.04;101975.66;4859294;29;20117;-77
2023/07/07 09:21:44;;;;;;;3.63;2.00;;;;;;;25.14;40.12;101976.97;4859282;29;20037;-77
2023/07/07 09:24:23;;;;;;;4.63;2.08;;;;;;;25.13;40.79;101967.41;4843371;29;20037;-77
2023/07/07 09:26:50;;;;;;;5.20;2.20;;;;;;;25.28;40.64;101963.13;4843361;29;20037;-79
2023/07/07 09:29:26;;;;;;;6.70;2.30;;;;;;;25.35;38.92;101966.72;4859118;29;20025;-77
2023/07/07 09:31:51;;;;;;;5.32;2.10;;;;;;;25.42;40.79;101970.38;4858928;29;20458;-78
2023/07/07 09:34:17;;;;;;;5.80;2.40;;;;;;;25.46;38.90;101960.28;4859152;29;20064;-77
2023/07/07 09:36:52;;;;;;;4.35;2.50;;;;;;;25.49;38.55;101959.13;4858954;29;20037;-78
2023/07/07 09:39:29;;;;;;;8.30;2.08;;;;;;;25.50;38.85;101963.44;4859051;29;20392;-79
2023/07/07 09:42:42;;;;;;;5.22;2.10;;;;;;;25.46;38.49;101958.47;4859050;29;20033;-79
2023/07/07 09:45:34;;;;;;;6.07;2.40;;;;;;;25.51;39.68;101959.78;4803797;29;20046;-78
2023/07/07 09:48:10;;;;;;;5.78;2.80;;;;;;;25.61;39.42;101961.25;4804052;29;20027;-78
2023/07/07 09:51:05;;;;;;;5.82;2.78;;;;;;;25.63;39.53;101964.56;4831247;29;20496;-79
2023/07/07 09:53:36;;;;;;;5.18;2.65;;;;;;;25.71;40.19;101956.66;4877205;29;20108;-79
2023/07/07 09:56:02;;;;;;;6.00;2.55;;;;;;;25.57;39.78;101922.09;4877231;29;20053;-79
2023/07/07 09:58:50;;;;;;;5.70;2.50;;;;;;;25.72;39.87;101953.00;4877198;29;20499;-78
2023/07/07 10:01:16;;;;;;;5.05;2.60;;;;;;;25.52;41.16;101919.94;4859227;29;20044;-76
2023/07/07 10:06:38;;;;;;;5.38;2.20;;;;;;;25.78;38.99;101954.16;4858816;29;20416;-78
2023/07/07 10:09:04;;;;;;;6.13;2.55;;;;;;;25.83;38.27;101954.47;4858491;29;20110;-76
2023/07/07 10:11:35;;;;;;;4.43;2.15;;;;;;;25.84;36.67;101950.00;4858525;29;20104;-77
2023/07/07 10:14:03;;;;;;;6.20;2.67;;;;;;;25.81;38.24;101945.06;4858419;29;20541;-78
2023/07/07 10:16:32;;;;;;;7.13;2.30;;;;;;;25.85;38.28;101939.22;4858169;29;20048;-77
2023/07/07 10:19:01;;;;;;;6.55;2.65;;;;;;;25.90;38.32;101926.34;4857743;29;20034;-77
2023/07/07 10:21:29;;;;;;;6.82;2.75;;;;;;;25.88;38.70;101915.09;4885855;29;20055;-76
2023/07/07 10:23:54;;;;;;;5.40;2.35;;;;;;;25.76;38.36;101905.03;4935859;29;20031;-77
2023/07/07 10:26:20;;;;;;;6.50;2.58;;;;;;;25.91;39.20;101933.28;4935991;29;20024;-77
2023/07/07 10:28:47;;;;;;;5.68;2.45;;;;;;;25.89;36.93;101919.41;4934727;29;20363;-74
2023/07/07 10:31:14;;;;;;;5.20;2.42;;;;;;;25.82;39.13;101923.72;4935333;29;20103;-76
2023/07/07 10:33:54;;;;;;;4.53;2.40;;;;;;;25.83;38.70;101913.94;4935951;29;20119;-76
2023/07/07 10:36:29;;;;;;;5.30;2.35;;;;;;;25.98;38.57;101934.25;4917789;29;20512;-78
2023/07/07 10:38:56;;;;;;;5.22;2.50;;;;;;;26.05;38.23;101929.06;4935272;29;20038;-77
2023/07/07 10:41:26;;;;;;;4.75;2.17;;;;;;;26.17;36.86;101929.56;4935041;29;20024;-78
2023/07/07 10:43:52;;;;;;;4.70;2.30;;;;;;;26.18;36.28;101925.91;4935137;29;20389;-78
2023/07/07 10:46:18;;;;;;;9.88;2.58;;;;;;;26.01;35.22;101899.50;4934912;29;20110;-76
2023/07/07 10:48:44;;;;;;;5.03;2.05;;;;;;;26.00;33.78;101923.50;4935678;29;20107;-76
2023/07/07 10:51:31;;;;;;;4.75;2.33;;;;;;;26.03;37.06;101920.50;4935229;29;20481;-75
2023/07/07 10:54:09;;;;;;;8.55;2.38;;;;;;;25.96;36.28;101899.19;4935071;29;20107;-78
2023/07/07 10:56:43;;;;;;;6.05;2.53;;;;;;;25.94;36.66;101913.56;4934923;29;20463;-76
2023/07/07 10:59:39;;;;;;;6.50;2.42;;;;;;;25.93;37.32;101914.56;4935322;29;20433;-77
2023/07/07 11:02:42;;;;;;;5.63;2.40;;;;;;;26.14;38.89;101916.63;4934672;29;20087;-77
2023/07/07 11:05:23;;;;;;;5.57;2.47;;;;;;;26.12;37.72;101898.28;4935010;29;20067;-77
2023/07/07 11:08:02;;;;;;;5.00;2.40;;;;;;;26.24;36.62;101898.72;4935172;29;20034;-76
2023/07/07 11:11:13;;;;;;;8.27;2.47;;;;;;;26.11;35.99;101891.34;4935225;29;20149;-76
2023/07/07 11:14:09;;;;;;;4.25;2.10;;;;;;;26.02;36.86;101914.38;4839444;29;21149;-78
2023/07/07 11:16:43;;;;;;;4.55;2.40;;;;;;;26.18;37.04;101916.13;4839220;29;20044;-78
2023/07/07 11:19:08;;;;;;;4.47;2.22;;;;;;;26.39;34.37;101912.09;4839575;29;20038;-79
2023/07/07 11:21:43;;;;;;;4.25;2.30;;;;;;;26.33;34.05;101908.28;4839596;29;20396;-78
2023/07/07 11:24:27;;;;;;;5.25;2.60;;;;;;;26.31;35.78;101907.63;4839258;29;20116;-78
2023/07/07 11:27:07;;;;;;;5.22;2.30;;;;;;;26.38;36.19;101903.31;4839470;29;20029;-78
2023/07/07 11:29:41;;;;;;;5.80;2.28;;;;;;;26.44;35.27;101897.31;4839206;29;20045;-78
2023/07/07 11:32:43;;;;;;;5.35;2.85;;;;;;;26.59;35.39;101894.75;4841514;29;20045;-77
2023/07/07 11:35:42;;;;;;;6.60;3.50;;;;;;;26.67;35.93;101901.81;4842280;29;20041;-78
2023/07/07 11:38:22;;;;;;;4.38;2.35;;;;;;;26.52;35.92;101899.09;4837912;29;20042;-77